Vitry en Artois Airfield

LFQS · Département du Pas-de-Calais, Nord-Pas-de-Calais-Picardie, France

METAR anciennes LFQS · Vitry en Artois Airfield

Tu vois ci-dessous les METAR des derniers jours. Sélectionne une année pour parcourir les METAR plus anciens, à partir de l'année 2007.

3 décembre 2022

Temps Code Temps Temp. Vue Base cloud Vent METAR/SPECI
22:30
M
2 °C 10 km+ 1.500 ft 060° 060° 10 kt SPECI LFQQ 032130Z AUTO 06010KT 9999 OVC015 02/M00 Q1016 BECMG OVC012
22:30
M
2 °C 10 km+ 1.500 ft 060° 060° 10 kt METAR LFQQ 032130Z AUTO 06010KT 9999 OVC015 02/M00 Q1016 BECMG OVC012
22:00
M
2 °C 10 km+ 1.500 ft 060° 060° 7 kt METAR LFQQ 032100Z AUTO 06007KT 9999 OVC015 02/M01 Q1016 BECMG OVC012
21:30
M
2 °C 10 km+ 1.500 ft 070° 070° 10 kt METAR LFQQ 032030Z AUTO 07010KT 9999 OVC015 02/M01 Q1016 BECMG OVC012
21:00
M
2 °C 10 km+ 1.500 ft 060° 060° 10 kt METAR LFQQ 032000Z AUTO 06010KT 9999 OVC015 02/M01 Q1016 BECMG OVC012
20:30
M
2 °C 10 km+ 1.500 ft 070° 070° 9 kt METAR LFQQ 031930Z AUTO 07009KT 9999 OVC015 02/M01 Q1016 BECMG OVC012
20:00
M
2 °C 10 km+ 1.500 ft 060° 060° 10 kt METAR LFQQ 031900Z AUTO 06010KT 9999 OVC015 02/M01 Q1016 BECMG OVC012
19:30
M
2 °C 10 km+ 1.600 ft 070° 070° 11 kt METAR LFQQ 031830Z AUTO 07011KT 9999 OVC016 02/M01 Q1017 BECMG OVC012
19:00
M
2 °C 10 km+ 1.600 ft 060° 060° 9 kt METAR LFQQ 031800Z AUTO 06009KT 9999 OVC016 02/M00 Q1017 NOSIG
18:30
M
2 °C 10 km+ 1.500 ft 070° 070° 9 kt METAR LFQQ 031730Z AUTO 07009KT 9999 OVC015 02/M00 Q1017 TEMPO OVC013
18:00
M
3 °C 9 km 1.500 ft 060° 060° 8 kt METAR LFQQ 031700Z AUTO 06008KT 9000 OVC015 03/M00 Q1017 TEMPO OVC013
17:30
M
3 °C 9 km 1.500 ft 050° 050° 10 kt METAR LFQQ 031630Z AUTO 05010KT 9000 OVC015 03/M00 Q1017 TEMPO OVC013
17:00
M
3 °C 9 km 1.500 ft 070° 070° 9 kt METAR LFQQ 031600Z AUTO 07009KT 9000 OVC015 03/M00 Q1017 TEMPO OVC013
16:30
M
3 °C 9 km 1.500 ft 060° 060° 10 kt METAR LFQQ 031530Z AUTO 06010KT 9000 OVC015 03/M00 Q1017 TEMPO OVC013
16:00
M
3 °C 10 km+ 1.500 ft 070° 070° 10 kt METAR LFQQ 031500Z AUTO 07010KT 9999 OVC015 03/00 Q1017 TEMPO OVC013
15:30
M
3 °C 9 km 1.500 ft 060° 060° 8 kt METAR LFQQ 031430Z AUTO 06008KT 9000 OVC015 03/00 Q1017 TEMPO OVC013
15:00
M
3 °C 10 km+ 1.500 ft 060° 060° 9 kt METAR LFQQ 031400Z AUTO 06009KT 9999 OVC015 03/00 Q1017 TEMPO OVC013
14:30
M
3 °C 10 km+ 1.500 ft 060° 060° 11 kt METAR LFQQ 031330Z AUTO 06011KT 9999 OVC015 03/00 Q1018 TEMPO OVC013
14:00
M
3 °C 10 km+ 1.400 ft 050° 050° 10 kt METAR LFQQ 031300Z AUTO 05010KT 9999 OVC014 03/00 Q1018 BECMG OVC017
13:30
M
3 °C 10 km+ 1.500 ft 050° 050° 8 kt METAR LFQQ 031230Z AUTO 05008KT 9999 OVC015 03/00 Q1018 NOSIG
13:00
M
3 °C 10 km+ 1.600 ft 050° 050° 10 kt METAR LFQQ 031200Z AUTO 05010KT 9999 OVC016 03/M00 Q1018 NOSIG
12:30
M
3 °C 10 km+ 1.600 ft 050° 050° 10 kt METAR LFQQ 031130Z AUTO 05010KT 9999 OVC016 03/M00 Q1018 BECMG OVC012
12:00
M
3 °C 10 km+ 1.800 ft 070° 070° 10 kt METAR LFQQ 031100Z AUTO 07010KT 9999 OVC018 03/M00 Q1019 BECMG OVC012
11:30
M
2 °C 10 km+ 1.600 ft 060° 060° 11 kt METAR LFQQ 031030Z AUTO 06011KT 9999 BKN016 OVC021 02/M00 Q1019 BECMG OVC012
11:00
M
2 °C 10 km+ 1.500 ft 070° 070° 11 kt METAR LFQQ 031000Z AUTO 07011KT 9999 OVC015 02/M00 Q1020 BECMG OVC012
10:30
M
2 °C 10 km+ 1.600 ft 070° 070° 10 kt METAR LFQQ 030930Z AUTO 07010KT 9999 OVC016 02/M01 Q1020 BECMG OVC012
10:00
M
2 °C 10 km+ 1.700 ft 060° 060° 11 kt METAR LFQQ 030900Z AUTO 06011KT 9999 OVC017 02/M01 Q1020 BECMG OVC012
09:30
M
2 °C 10 km+ 1.700 ft 060° 060° 8 kt METAR LFQQ 030830Z AUTO 06008KT 9999 OVC017 02/M01 Q1020 BECMG OVC012
09:00
M
2 °C 10 km+ 1.700 ft 060° 060° 10 kt METAR LFQQ 030800Z AUTO 06010KT 9999 OVC017 02/M01 Q1020 BECMG OVC012
08:30
M
2 °C 10 km+ 1.600 ft 050° 050° 9 kt METAR LFQQ 030730Z AUTO 05009KT 9999 OVC016 02/M01 Q1020 BECMG OVC012
08:00
M
2 °C 10 km+ 1.700 ft 050° 050° 11 kt METAR LFQQ 030700Z AUTO 05011KT 9999 OVC017 02/M01 Q1020 BECMG OVC012
07:30
M
2 °C 10 km+ 1.600 ft 050° 050° 10 kt METAR LFQQ 030630Z AUTO 05010KT 9999 OVC016 02/M01 Q1020 BECMG OVC012
07:00
M
2 °C 10 km+ 1.500 ft 050° 050° 8 kt METAR LFQQ 030600Z AUTO 05008KT 9999 BKN015 OVC020 02/M01 Q1020 BECMG OVC012
06:30
M
2 °C 10 km+ 1.500 ft 050° 050° 10 kt METAR LFQQ 030530Z AUTO 05010KT 9999 OVC015 02/M01 Q1020 TEMPO 4000 DZ BR OVC008
06:00
M
2 °C 10 km+ 1.600 ft 040° 040° 9 kt METAR LFQQ 030500Z AUTO 04009KT 9999 OVC016 02/M01 Q1020 TEMPO 4000 DZ BR OVC008
05:30
M
2 °C 10 km+ 1.800 ft 030° 030° 10 kt METAR LFQQ 030430Z AUTO 03010KT 9999 OVC018 02/M01 Q1020 TEMPO 4000 DZ BR OVC008
05:00
M
2 °C 10 km+ 2.100 ft 040° 040° 9 kt METAR LFQQ 030400Z AUTO 04009KT 9999 OVC021 02/M01 Q1020 TEMPO 4000 DZ BR OVC008
04:30
M
2 °C 10 km+ 1.800 ft 040° 040° 10 kt METAR LFQQ 030330Z AUTO 04010KT 9999 OVC018 02/M01 Q1020 TEMPO 4000 DZ BR OVC008
04:00
M
2 °C 10 km+ 1.800 ft 040° 040° 11 kt METAR LFQQ 030300Z AUTO 04011KT 9999 OVC018 02/M01 Q1021 TEMPO 4000 DZ BR OVC008
03:30
M
2 °C 10 km+ 1.900 ft 040° 040° 11 kt METAR LFQQ 030230Z AUTO 04011KT 9999 OVC019 02/M01 Q1021 TEMPO 4000 DZ BR OVC008
03:00
M
2 °C 9 km 1.900 ft 040° 040° 10 kt METAR LFQQ 030200Z AUTO 04010KT 9000 OVC019 02/M01 Q1021 TEMPO 4000 DZ BR OVC008
02:30
M
2 °C 9 km 1.800 ft 040° 040° 11 kt METAR LFQQ 030130Z AUTO 04011KT 9000 OVC018 02/M01 Q1021 TEMPO 4000 DZ BR OVC008
02:00
M
2 °C 9 km 2.000 ft 030° 030° 10 kt METAR LFQQ 030100Z AUTO 03010KT 9000 OVC020 02/M01 Q1021 TEMPO 4000 DZ BR OVC008
01:30
M
2 °C 8 km 2.100 ft 040° 040° 11 kt METAR LFQQ 030030Z AUTO 04011KT 8000 OVC021 02/M00 Q1021 TEMPO 4000 DZ BR OVC008
01:00
M
2 °C 9 km 2.400 ft 040° 040° 10 kt METAR LFQQ 030000Z AUTO 04010KT 9000 OVC024 02/M01 Q1021 TEMPO 4000 DZ BR OVC008
00:30
M
3 °C 9 km 2.400 ft 040° 040° 12 kt METAR LFQQ 022330Z AUTO 04012KT 9000 OVC024 03/M01 Q1021 TEMPO 4000 DZ BR OVC008
00:00
M
3 °C 8 km 2.200 ft 040° 040° 12 kt METAR LFQQ 022300Z AUTO 04012KT 8000 OVC022 03/M00 Q1021 TEMPO 4000 DZ BR OVC008

2 décembre 2022

Temps Code Temps Temp. Vue Base cloud Vent METAR/SPECI
23:30
M
3 °C 9 km 2.000 ft 040° 040° 11 kt METAR LFQQ 022230Z AUTO 04011KT 9000 OVC020 03/M00 Q1021 TEMPO 4000 DZ BR OVC008
23:00
M
3 °C 8 km 1.500 ft 050° 050° 12 kt METAR LFQQ 022200Z AUTO 05012KT 8000 OVC015 03/M00 Q1021 TEMPO 4000 DZ BR OVC008
22:30
M
3 °C 7 km 1.200 ft 060° 060° 12 kt METAR LFQQ 022130Z AUTO 06012KT 7000 OVC012 03/00 Q1022 TEMPO 4000 DZ BR OVC008
22:00
M
3 °C 8 km 1.200 ft 040° 040° 13 kt METAR LFQQ 022100Z AUTO 04013KT 8000 OVC012 03/01 Q1022 TEMPO 4000 DZ BR OVC008
21:30
M
3 °C 10 km+ 1.200 ft 050° 050° 14 kt METAR LFQQ 022030Z AUTO 05014KT 9999 OVC012 03/01 Q1021 TEMPO 4000 DZ BR OVC008
21:00
M
3 °C 10 km+ 1.300 ft 050° 050° 15 kt METAR LFQQ 022000Z AUTO 05015KT 9999 OVC013 03/01 Q1021 TEMPO 4000 DZ BR OVC008
20:30
M
3 °C 10 km+ 1.300 ft 040° 040° 13 kt METAR LFQQ 021930Z AUTO 04013KT 9999 OVC013 03/01 Q1021 TEMPO 4000 DZ BR OVC008
20:00
M
3 °C 9 km 1.300 ft 030° 030° 14 kt METAR LFQQ 021900Z AUTO 03014KT 9000 OVC013 03/01 Q1021 TEMPO SCT013 OVC022
19:30
M
4 °C 7 km 1.300 ft 030° 030° 11 kt METAR LFQQ 021830Z AUTO 03011KT 7000 OVC013 04/01 Q1021 TEMPO SCT013 OVC022
19:00
M
4 °C 7 km 1.400 ft 030° 030° 11 kt METAR LFQQ 021800Z AUTO 03011KT 7000 BKN014 OVC019 04/02 Q1021 TEMPO SCT013 OVC022
18:30
M
4 °C 7 km 1.200 ft 030° 030° 9 kt METAR LFQQ 021730Z AUTO 03009KT 7000 OVC012 04/02 Q1021 TEMPO 3000 -SN OVC002
18:00
M
4 °C 7 km 1.200 ft 040° 040° 9 kt METAR LFQQ 021700Z AUTO 04009KT 7000 OVC012 04/02 Q1021 TEMPO 3000 -SN OVC002
17:30
M
4 °C 7 km 1.100 ft 030° 030° 10 kt METAR LFQQ 021630Z AUTO 03010KT 7000 OVC011 04/02 Q1021 TEMPO 3000 -SN OVC002
17:00
M
3 °C 7 km 1.000 ft 030° 030° 9 kt METAR LFQQ 021600Z AUTO 03009KT 7000 OVC010 03/02 Q1021 NOSIG
16:30
M
3 °C 7 km 1.100 ft 030° 030° 10 kt METAR LFQQ 021530Z AUTO 03010KT 7000 OVC011 03/02 Q1021 BECMG BKN006
16:00
M
3 °C 7 km 1.300 ft 030° 030° 10 kt METAR LFQQ 021500Z AUTO 03010KT 7000 OVC013 03/01 Q1021 TEMPO 3000 BR BECMG BKN006
15:30
M
3 °C 9 km 1.600 ft 030° 030° 9 kt METAR LFQQ 021430Z AUTO 03009KT 9000 OVC016 03/01 Q1021 TEMPO 3000 BR BECMG BKN006
15:00
M
3 °C 9 km 1.500 ft 040° 040° 10 kt METAR LFQQ 021400Z AUTO 04010KT 9000 OVC015 03/01 Q1021 TEMPO 3000 BR BKN006
14:30
M
3 °C 6 km 1.100 ft 040° 040° 11 kt METAR LFQQ 021330Z AUTO 04011KT 6000 BKN011 OVC018 03/02 Q1021 TEMPO 3000 BR BKN006
14:00
I
3 °C 4,5 km 800 ft 030° 030° 11 kt METAR LFQQ 021300Z AUTO 03011KT 4500 BR BKN008 BKN012 OVC018 03/02 Q1021 NOSIG
13:30
I
3 °C 3,5 km 600 ft 040° 040° 12 kt METAR LFQQ 021230Z AUTO 04012KT 3500 BR OVC006 03/02 Q1022 BECMG 6000 NSW BKN012 BKN020
13:00
I
3 °C 3,4 km 600 ft 050° 050° 10 kt METAR LFQQ 021200Z AUTO 05010KT 3400 BR BKN006 OVC011 03/03 Q1022 TEMPO OVC004 BECMG 8000 NSW
12:30
I
4 °C 4,3 km 1.000 ft 020° 020° 13 kt METAR LFQQ 021130Z AUTO 02013KT 4300 DZ BR OVC010 04/02 Q1022 TEMPO OVC004 BECMG 8000 NSW
12:00
M
4 °C 5 km 1.200 ft 010° 010° 10 kt METAR LFQQ 021100Z AUTO 01010KT 5000 BR BKN012 OVC018 04/02 Q1022 TEMPO OVC004
11:30
M
5 °C 6 km 1.300 ft 010° 010° 12 kt METAR LFQQ 021030Z AUTO 01012KT 6000 BKN013 OVC020 05/03 Q1022 TEMPO OVC004
11:00
L
5 °C 800 m 1.800 ft 010° 010° 10 kt METAR LFQQ 021000Z AUTO 01010KT 5000 0800 R26/1900D R08/P5000 BCFG FEW012 OVC018 05/03 Q1023 TEMPO OVC004
10:30
I
5 °C 4,4 km 1.700 ft 020° 020° 10 kt METAR LFQQ 020930Z AUTO 02010KT 4400 BR SCT009 BKN017 OVC064 05/04 Q1023 TEMPO OVC004 BECMG 8000 NSW
10:00
I
4 °C 3,6 km 600 ft 020° 020° 6 kt METAR LFQQ 020900Z AUTO 02006KT 3600 BR BKN006 OVC018 04/04 Q1023 TEMPO OVC004 BECMG 8000 NSW
09:30
I
4 °C 3,5 km 600 ft 010° 010° 5 kt METAR LFQQ 020830Z AUTO 01005KT 3500 BR BKN006 BKN017 OVC052 04/04 Q1023 TEMPO OVC004 BECMG 8000 NSW
09:00
I
4 °C 3,4 km 1.400 ft 360° 360° 6 kt METAR LFQQ 020800Z AUTO 36006KT 3400 BR FEW007 BKN014 OVC020 04/03 Q1023 TEMPO OVC004 BECMG 8000 NSW
08:30
I
4 °C 4,2 km 5.600 ft 010° 010° 5 kt METAR LFQQ 020730Z AUTO 01005KT 350V070 4200 BR FEW005 SCT047 OVC056 04/03 Q1023 TEMPO OVC004 BECMG 8000 NSW
08:00
I
3 °C 4,6 km 4.800 ft 350° 350° 4 kt METAR LFQQ 020700Z AUTO 35004KT 4600 BR FEW004 OVC048 03/03 Q1023 TEMPO OVC004 BECMG 8000 NSW
07:30
I
3 °C 4,8 km 4.800 ft 350° 350° 6 kt METAR LFQQ 020630Z AUTO 35006KT 4800 BR SCT004 OVC048 03/03 Q1023 TEMPO OVC004 BECMG 8000 NSW
07:00
I
3 °C 4,6 km 4.900 ft 350° 350° 5 kt METAR LFQQ 020600Z AUTO 35005KT 4600 BR OVC049 03/03 Q1023 BECMG 8000 NSW BKN009
06:30
I
3 °C 4,7 km 4.400 ft 020° 020° 5 kt METAR LFQQ 020530Z AUTO 02005KT 4700 BR OVC044 03/03 Q1023 BECMG 6000 NSW BKN009
06:00
I
3 °C 4,6 km - 010° 010° 4 kt METAR LFQQ 020500Z AUTO 01004KT 4600 BR NSC 03/03 Q1023 BECMG 6000 NSW BKN009
05:30
I
3 °C 4,7 km - 030° 030° 4 kt METAR LFQQ 020430Z AUTO 03004KT 4700 BR NSC 03/02 Q1024 BECMG 6000 NSW BKN009
05:00
M
3 °C 5 km - 360° 360° 5 kt METAR LFQQ 020400Z AUTO 36005KT 5000 BR NSC 03/02 Q1024 TEMPO BKN004
04:30
M
3 °C 5 km - 010° 010° 4 kt METAR LFQQ 020330Z AUTO 01004KT 5000 BR NSC 03/02 Q1024 TEMPO BKN004
04:00
M
3 °C 5 km - 360° 360° 4 kt METAR LFQQ 020300Z AUTO 36004KT 5000 BR NSC 03/02 Q1024 TEMPO BKN004
03:30
M
3 °C 5 km - 350° 350° 6 kt METAR LFQQ 020230Z AUTO 35006KT 5000 BR NSC 03/02 Q1025 TEMPO BKN004
03:00
M
2 °C 5 km - 350° 350° 6 kt METAR LFQQ 020200Z AUTO 35006KT 5000 BR NSC 02/02 Q1025 TEMPO BKN004
02:30
I
2 °C 4,8 km - 030° 030° 3 kt METAR LFQQ 020130Z AUTO 03003KT 350V070 4800 BR NSC 02/02 Q1025 TEMPO BKN004
02:00
I
2 °C 4,6 km - Var 000° 0 kt METAR LFQQ 020100Z AUTO 00000KT 4600 BR NSC 02/02 Q1025 TEMPO BKN004
01:30
I
2 °C 4,9 km - 360° 360° 5 kt METAR LFQQ 020030Z AUTO 36005KT 4900 BR NSC 02/02 Q1025 TEMPO BKN004
01:00
M
2 °C 5 km - 350° 350° 6 kt METAR LFQQ 020000Z AUTO 35006KT 5000 BR NSC 02/02 Q1025 TEMPO BKN004
00:30
I
2 °C 4,8 km - 360° 360° 3 kt METAR LFQQ 012330Z AUTO 36003KT 4800 BR NSC 02/01 Q1026 TEMPO BKN004
00:00
M
2 °C 5 km - 350° 350° 7 kt METAR LFQQ 012300Z AUTO 35007KT 5000 BR NSC 02/02 Q1026 TEMPO BKN010 BKN020

1 décembre 2022

Temps Code Temps Temp. Vue Base cloud Vent METAR/SPECI
23:30
M
3 °C 5 km - 010° 010° 5 kt METAR LFQQ 012230Z AUTO 01005KT 5000 BR NSC 03/02 Q1026 TEMPO BKN010 BKN020
23:00
M
3 °C 6 km - 020° 020° 7 kt METAR LFQQ 012200Z AUTO 02007KT 6000 NSC 03/02 Q1026 TEMPO BKN010 BKN020
22:30
M
3 °C 6 km - 010° 010° 7 kt METAR LFQQ 012130Z AUTO 01007KT 6000 FEW028 03/02 Q1026 TEMPO BKN010 BKN020
22:00
M
3 °C 6 km - 010° 010° 7 kt METAR LFQQ 012100Z AUTO 01007KT 6000 FEW027 03/02 Q1026 NOSIG
21:30
M
3 °C 6 km - 010° 010° 7 kt METAR LFQQ 012030Z AUTO 01007KT 6000 FEW025 03/02 Q1026 NOSIG
21:00
M
3 °C 6 km - 010° 010° 6 kt METAR LFQQ 012000Z AUTO 01006KT 6000 NSC 03/02 Q1026 NOSIG
20:30
M
4 °C 7 km - 010° 010° 6 kt METAR LFQQ 011930Z AUTO 01006KT 7000 NSC 04/03 Q1027 NOSIG
20:00
M
4 °C 7 km - 020° 020° 6 kt METAR LFQQ 011900Z AUTO 02006KT 7000 FEW027 04/03 Q1027 NOSIG
19:30
M
5 °C 7 km 2.700 ft 020° 020° 6 kt METAR LFQQ 011830Z AUTO 02006KT 7000 OVC027 05/03 Q1027 NOSIG
19:00
M
5 °C 8 km 2.500 ft 020° 020° 6 kt METAR LFQQ 011800Z AUTO 02006KT 8000 OVC025 05/04 Q1027 NOSIG
18:30
M
5 °C 8 km 2.500 ft 030° 030° 3 kt METAR LFQQ 011730Z AUTO 03003KT 360V060 8000 OVC025 05/04 Q1027 NOSIG
18:00
V
4 °C 10 km+ - 020° 020° 6 kt METAR LFQQ 011700Z AUTO 02006KT 9999 FEW027 04/02 Q1027 NOSIG
17:30
V
5 °C 9 km - 030° 030° 6 kt METAR LFQQ 011630Z AUTO 03006KT 9000 NSC 05/03 Q1026 NOSIG
17:00
V
5 °C 10 km+ - 020° 020° 5 kt METAR LFQQ 011600Z AUTO 02005KT 9999 FEW017 05/03 Q1026 NOSIG
16:30
V
6 °C 10 km+ - 030° 030° 5 kt METAR LFQQ 011530Z AUTO 03005KT 9999 FEW020 06/03 Q1026 NOSIG
16:00
M
6 °C 10 km+ 1.900 ft 040° 040° 7 kt METAR LFQQ 011500Z AUTO 04007KT 9999 // BKN019 BKN028 06/03 Q1026
15:30
V
7 °C 10 km+ - 040° 040° 7 kt METAR LFQQ 011430Z AUTO 04007KT 9999 FEW016 07/04 Q1026 NOSIG
15:00
M
7 °C 10 km+ 2.100 ft 020° 020° 8 kt METAR LFQQ 011400Z AUTO 02008KT 9999 SCT016 BKN021 BKN027 07/04 Q1026 NOSIG
14:30
M
7 °C 10 km+ 1.400 ft 020° 020° 8 kt METAR LFQQ 011330Z AUTO 02008KT 9999 BKN014 OVC023 07/04 Q1027 BECMG BKN020
14:00
M
7 °C 9 km 2.400 ft 020° 020° 7 kt METAR LFQQ 011300Z AUTO 02007KT 340V050 9000 SCT015 OVC024 07/04 Q1027 NOSIG
13:30
L
7 °C 250 m 1.700 ft 020° 020° 7 kt METAR LFQQ 011230Z AUTO 02007KT 9999 0250 R26/P5000 R08/0275N // BKN017 BKN024 07/04 Q1027
13:00
M
7 °C 10 km+ 1.900 ft 040° 040° 9 kt METAR LFQQ 011200Z AUTO 04009KT 9999 BKN019 BKN026 07/04 Q1027 NOSIG
12:30
V
7 °C 10 km+ - 020° 020° 8 kt METAR LFQQ 011130Z AUTO 02008KT CAVOK 07/04 Q1027 NOSIG
12:00
V
7 °C 10 km+ - 040° 040° 6 kt METAR LFQQ 011100Z AUTO 04006KT 9999 FEW023 07/04 Q1027 BECMG BKN010
11:30
M
6 °C 7 km 2.300 ft 030° 030° 4 kt METAR LFQQ 011030Z AUTO 03004KT 7000 OVC023 06/04 Q1028 BECMG BKN010
11:00
M
5 °C 6 km 2.300 ft 010° 010° 4 kt METAR LFQQ 011000Z AUTO 01004KT 320V040 6000 FEW008 OVC023 05/04 Q1028 BECMG BKN010

Nous et des tiers suivons ton comportement Internet sur notre site Web à l'aide de cookies. Si tu continues, nous supposons que tu es d'accord avec notre Politique en matière de cookies.